Agnes, Georgia
Current Conditions -  °F | °C
As of 11:15 AM on Wednesday 26 Nov 2014 (Local Time) from KHQU Reporting Station
Scattered Clouds Scattered Clouds  
Wind Chill: 54°   Ceiling: Unl
Heat Index: 54°   Visibility: 10mi
Dew Point: 51°   Wind: 3mph
Humidity: 88%   Direction: 270°W
Pressure: 30.11"   Gusts: NA
Location:  33.7816°N, 82.4511°W
Report Text: KHQU 261615Z AUTO 27003KT 10SM SCT019 SCT025 12/10 A3011 RMK AO1 T01230103
Loading
Personal Weather Stations






























Interactive Weather Map New forecast layout! Learn more

10-Day Weather Forecast

Advertisements
Track Severe Weather on mobile